createdAt,value
2018-02-07T00:00:25.152Z,-2.99
2018-02-07T00:01:25.109Z,-3.1
2018-02-07T00:02:25.119Z,-2.95
2018-02-07T00:03:25.095Z,-2.88
2018-02-07T00:04:25.012Z,-2.97
2018-02-07T00:05:25.009Z,-2.99
2018-02-07T00:06:25.044Z,-3.02
2018-02-07T00:07:24.965Z,-2.97
2018-02-07T00:08:25.003Z,-2.97
2018-02-07T00:09:24.991Z,-3.03
2018-02-07T00:10:24.898Z,-3.01
2018-02-07T00:11:24.987Z,-3
2018-02-07T00:12:24.966Z,-3.05
2018-02-07T00:13:25.038Z,-2.99
2018-02-07T00:14:25.044Z,-2.99
2018-02-07T00:15:24.996Z,-3.01
2018-02-07T00:16:25.004Z,-3.02
2018-02-07T00:17:25.053Z,-3.01
2018-02-07T00:18:25.044Z,-3.05
2018-02-07T00:19:24.955Z,-3.12
2018-02-07T00:20:24.932Z,-3.07
2018-02-07T00:21:24.888Z,-3.04
2018-02-07T00:22:24.895Z,-3.18
2018-02-07T00:23:24.985Z,-3.18
2018-02-07T00:24:25.013Z,-3.21
2018-02-07T00:25:24.911Z,-3.22
2018-02-07T00:26:24.908Z,-3.19
2018-02-07T00:27:24.979Z,-3.15
2018-02-07T00:28:24.893Z,-3.11
2018-02-07T00:29:25.017Z,-3.11
2018-02-07T00:30:24.991Z,-3.17
2018-02-07T00:31:24.916Z,-3.14
2018-02-07T00:32:25.013Z,-3.2
2018-02-07T00:33:25.043Z,-3.16
2018-02-07T00:34:25.008Z,-3.24
2018-02-07T00:35:25.843Z,-3.26
2018-02-07T00:36:25.799Z,-3.2
2018-02-07T00:37:25.829Z,-3.16
2018-02-07T00:38:25.908Z,-3.17
2018-02-07T00:39:25.809Z,-3.17
2018-02-07T00:40:25.925Z,-3.17
2018-02-07T00:41:25.803Z,-3.17
2018-02-07T00:42:25.797Z,-3.22
2018-02-07T00:43:25.813Z,-3.12
2018-02-07T00:44:25.950Z,-3.22
2018-02-07T00:45:25.873Z,-3.22
2018-02-07T00:46:25.805Z,-3.24
2018-02-07T00:47:25.866Z,-3.21
2018-02-07T00:48:25.875Z,-3.24
2018-02-07T00:50:27.353Z,-3.22
2018-02-07T00:51:25.884Z,-3.15
2018-02-07T00:52:25.945Z,-3.16
2018-02-07T00:53:25.913Z,-3.18
2018-02-07T00:54:25.894Z,-3.25
2018-02-07T00:55:25.917Z,-3.15
2018-02-07T00:56:25.894Z,-3.19
2018-02-07T00:57:25.893Z,-3.26
2018-02-07T00:58:25.924Z,-3.26
2018-02-07T00:59:25.915Z,-3.22
2018-02-07T01:00:25.896Z,-3.21
2018-02-07T01:01:25.927Z,-3.15
2018-02-07T01:02:25.856Z,-3.17
2018-02-07T01:03:25.827Z,-3.24
2018-02-07T01:04:25.845Z,-3.17
2018-02-07T01:05:25.655Z,-3.23
2018-02-07T01:06:25.702Z,-3.32
2018-02-07T01:07:25.758Z,-3.21
2018-02-07T01:08:25.764Z,-3.19
2018-02-07T01:09:25.776Z,-3.23
2018-02-07T01:10:25.668Z,-3.23
2018-02-07T01:11:25.747Z,-3.28
2018-02-07T01:12:25.627Z,-3.24
2018-02-07T01:13:25.635Z,-3.27
2018-02-07T01:14:25.604Z,-3.23
2018-02-07T01:15:25.720Z,-3.23
2018-02-07T01:16:25.744Z,-3.22
2018-02-07T01:17:25.715Z,-3.22
2018-02-07T01:18:25.657Z,-3.22
2018-02-07T01:19:25.628Z,-3.22
2018-02-07T01:20:25.784Z,-3.22
2018-02-07T01:21:25.650Z,-3.27
2018-02-07T01:22:25.624Z,-3.32
2018-02-07T01:23:25.695Z,-3.27
2018-02-07T01:24:25.680Z,-3.26
2018-02-07T01:25:25.731Z,-3.3
2018-02-07T01:26:25.685Z,-3.33
2018-02-07T01:27:25.750Z,-3.3
2018-02-07T01:28:25.768Z,-3.32
2018-02-07T01:29:25.721Z,-3.4
2018-02-07T01:30:25.811Z,-3.4
2018-02-07T01:31:25.783Z,-3.43
2018-02-07T01:32:25.732Z,-3.4
2018-02-07T01:33:25.663Z,-3.47
2018-02-07T01:34:25.693Z,-3.46
2018-02-07T01:35:25.752Z,-3.46
2018-02-07T01:36:25.603Z,-3.45
2018-02-07T01:37:25.672Z,-3.47
2018-02-07T01:38:25.628Z,-3.46
2018-02-07T01:39:25.556Z,-3.53
2018-02-07T01:40:25.968Z,-3.56
2018-02-07T01:41:25.716Z,-3.54
2018-02-07T01:42:25.640Z,-3.54
2018-02-07T01:43:25.593Z,-3.55
2018-02-07T01:44:25.608Z,-3.6
2018-02-07T01:45:25.589Z,-3.62
2018-02-07T01:46:25.619Z,-3.64
2018-02-07T01:47:25.509Z,-3.68
2018-02-07T01:48:25.545Z,-3.68
2018-02-07T01:49:25.607Z,-3.64
2018-02-07T01:50:25.614Z,-3.65
2018-02-07T01:51:25.570Z,-3.67
2018-02-07T01:52:25.671Z,-3.64
2018-02-07T01:53:25.653Z,-3.67
2018-02-07T01:54:25.636Z,-3.69
2018-02-07T01:55:25.546Z,-3.66
2018-02-07T01:56:25.482Z,-3.62
2018-02-07T01:57:25.559Z,-3.65
2018-02-07T01:58:25.621Z,-3.63
2018-02-07T01:59:25.653Z,-3.63
2018-02-07T02:00:25.648Z,-3.68
2018-02-07T02:01:25.552Z,-3.68
2018-02-07T02:02:25.578Z,-3.66
2018-02-07T02:03:25.628Z,-3.69
2018-02-07T02:04:25.588Z,-3.71
2018-02-07T02:05:25.645Z,-3.71
2018-02-07T02:06:25.532Z,-3.7
2018-02-07T02:07:25.418Z,-3.72
2018-02-07T02:08:25.359Z,-3.75
2018-02-07T02:09:25.445Z,-3.7
2018-02-07T02:10:25.413Z,-3.67
2018-02-07T02:11:25.327Z,-3.72
2018-02-07T02:12:25.373Z,-3.69
2018-02-07T02:13:25.291Z,-3.75
2018-02-07T02:14:25.376Z,-3.85
2018-02-07T02:15:25.252Z,-3.84
2018-02-07T02:16:25.457Z,-3.87
2018-02-07T02:17:25.368Z,-3.8
2018-02-07T02:18:25.404Z,-3.82
2018-02-07T02:19:25.306Z,-3.83
2018-02-07T02:20:25.404Z,-3.92
2018-02-07T02:21:25.424Z,-3.94
2018-02-07T02:22:25.251Z,-3.91
2018-02-07T02:23:25.441Z,-3.78
2018-02-07T02:24:25.339Z,-3.8
2018-02-07T02:25:25.394Z,-3.82
2018-02-07T02:26:25.299Z,-3.75
2018-02-07T02:27:25.328Z,-3.75
2018-02-07T02:28:25.322Z,-3.77
2018-02-07T02:29:25.459Z,-3.85
2018-02-07T02:30:25.325Z,-3.81
2018-02-07T02:31:25.298Z,-3.81
2018-02-07T02:32:25.398Z,-3.83
2018-02-07T02:33:25.322Z,-3.88
2018-02-07T02:34:25.416Z,-3.82
2018-02-07T02:35:25.320Z,-3.89
2018-02-07T02:36:25.312Z,-3.87
2018-02-07T02:37:25.433Z,-3.85
2018-02-07T02:38:25.258Z,-3.83
2018-02-07T02:39:25.261Z,-3.83
2018-02-07T02:40:25.284Z,-3.8
2018-02-07T02:41:25.243Z,-3.77
2018-02-07T02:42:25.280Z,-3.79
2018-02-07T02:43:25.227Z,-3.81
2018-02-07T02:44:25.245Z,-3.84
2018-02-07T02:45:25.478Z,-3.82
2018-02-07T02:46:25.329Z,-3.8
2018-02-07T02:47:25.289Z,-3.84
2018-02-07T02:48:25.281Z,-3.85
2018-02-07T02:49:25.370Z,-3.84
2018-02-07T02:50:25.426Z,-3.88
2018-02-07T02:51:25.350Z,-3.89
2018-02-07T02:52:25.343Z,-3.78
2018-02-07T02:53:25.254Z,-3.83
2018-02-07T02:54:25.342Z,-3.79
2018-02-07T02:55:25.322Z,-3.8
2018-02-07T02:56:25.248Z,-3.84
2018-02-07T02:57:25.276Z,-3.94
2018-02-07T02:58:25.308Z,-3.89
2018-02-07T02:59:25.362Z,-3.88
2018-02-07T03:00:25.281Z,-3.94
2018-02-07T03:01:25.243Z,-3.93
2018-02-07T03:02:25.279Z,-3.87
2018-02-07T03:03:25.239Z,-3.85
2018-02-07T03:04:25.413Z,-3.92
2018-02-07T03:05:25.265Z,-3.91
2018-02-07T03:06:25.263Z,-3.77
2018-02-07T03:07:25.429Z,-3.82
2018-02-07T03:08:25.289Z,-3.86
2018-02-07T03:09:25.172Z,-3.86
2018-02-07T03:10:25.107Z,-3.83
2018-02-07T03:11:25.076Z,-3.86
2018-02-07T03:12:25.032Z,-3.93
2018-02-07T03:13:25.148Z,-3.91
2018-02-07T03:14:25.128Z,-3.91
2018-02-07T03:15:25.138Z,-3.9
2018-02-07T03:16:25.073Z,-3.88
2018-02-07T03:17:25.097Z,-3.85
2018-02-07T03:18:25.257Z,-3.87
2018-02-07T03:19:25.051Z,-3.93
2018-02-07T03:20:25.184Z,-3.95
2018-02-07T03:21:25.080Z,-3.82
2018-02-07T03:22:25.099Z,-3.83
2018-02-07T03:23:25.197Z,-3.82
2018-02-07T03:24:25.146Z,-3.78
2018-02-07T03:25:25.131Z,-3.84
2018-02-07T03:26:25.137Z,-3.85
2018-02-07T03:27:25.122Z,-3.96
2018-02-07T03:28:25.061Z,-3.93
2018-02-07T03:29:25.249Z,-3.91
2018-02-07T03:30:25.280Z,-3.97
2018-02-07T03:31:25.101Z,-4.02
2018-02-07T03:32:25.087Z,-3.96
2018-02-07T03:33:25.120Z,-3.98
2018-02-07T03:34:25.119Z,-3.98
2018-02-07T03:35:25.110Z,-3.94
2018-02-07T03:36:25.129Z,-3.88
2018-02-07T03:37:25.201Z,-3.88
2018-02-07T03:38:25.247Z,-3.87
2018-02-07T03:39:25.076Z,-3.91
2018-02-07T03:40:25.815Z,-3.97
2018-02-07T03:41:26.449Z,-4
2018-02-07T03:42:25.810Z,-4.01
2018-02-07T03:43:26.288Z,-3.99
2018-02-07T03:44:26.075Z,-4.06
2018-02-07T03:45:25.826Z,-3.99
2018-02-07T03:46:25.864Z,-3.96
2018-02-07T03:47:25.837Z,-3.94
2018-02-07T03:48:25.896Z,-3.98
2018-02-07T03:49:25.853Z,-3.99
2018-02-07T03:50:25.812Z,-3.99
2018-02-07T03:51:25.969Z,-3.99
2018-02-07T03:52:25.865Z,-3.94
2018-02-07T03:53:25.837Z,-3.94
2018-02-07T03:54:25.940Z,-3.97
2018-02-07T03:55:25.931Z,-4
2018-02-07T03:56:26.001Z,-4.02
2018-02-07T03:57:25.959Z,-4.01
2018-02-07T03:58:25.893Z,-4.01
2018-02-07T03:59:25.944Z,-4.05
2018-02-07T04:00:25.895Z,-4.08
2018-02-07T04:01:25.885Z,-4.07
2018-02-07T04:02:25.892Z,-4.03
2018-02-07T04:03:26.058Z,-4.06
2018-02-07T04:04:26.263Z,-4.03
2018-02-07T04:05:25.951Z,-4.02
2018-02-07T04:06:25.817Z,-4.06
2018-02-07T04:07:25.955Z,-4
2018-02-07T04:08:25.950Z,-4.02
2018-02-07T04:09:26.028Z,-4.07
2018-02-07T04:11:26.425Z,-4.11
2018-02-07T04:12:25.951Z,-4.07
2018-02-07T04:13:26.027Z,-4.05
2018-02-07T04:14:26.323Z,-4.1
2018-02-07T04:15:25.876Z,-4.11
2018-02-07T04:16:25.921Z,-4.06
2018-02-07T04:17:25.941Z,-4.06
2018-02-07T04:18:25.978Z,-4.08
2018-02-07T04:19:25.885Z,-4.16
2018-02-07T04:20:25.931Z,-4.2
2018-02-07T04:21:25.938Z,-3.97
2018-02-07T04:22:25.852Z,-4.04
2018-02-07T04:23:25.892Z,-4.07
2018-02-07T04:24:25.910Z,-4.11
2018-02-07T04:25:25.908Z,-4.14
2018-02-07T04:26:25.944Z,-4.12
2018-02-07T04:27:25.851Z,-4.07
2018-02-07T04:28:25.989Z,-4.07
2018-02-07T04:29:25.851Z,-4.14
2018-02-07T04:30:26.030Z,-4.08
2018-02-07T04:31:25.878Z,-4.07
2018-02-07T04:32:25.947Z,-4.1
2018-02-07T04:33:25.965Z,-4.06
2018-02-07T04:34:26.030Z,-4.05
2018-02-07T04:35:26.181Z,-4.12
2018-02-07T04:36:26.018Z,-4.02
2018-02-07T04:37:26.023Z,-4.03
2018-02-07T04:38:25.915Z,-4.08
2018-02-07T04:39:25.904Z,-4.09
2018-02-07T04:40:25.837Z,-4.13
2018-02-07T04:41:25.795Z,-4.07
2018-02-07T04:42:25.582Z,-4.07
2018-02-07T04:43:25.760Z,-4.12
2018-02-07T04:44:25.710Z,-4.12
2018-02-07T04:45:25.698Z,-4.21
2018-02-07T04:46:25.754Z,-4.23
2018-02-07T04:47:25.617Z,-4.13
2018-02-07T04:48:25.590Z,-4.19
2018-02-07T04:49:25.561Z,-4.21
2018-02-07T04:50:25.708Z,-4.24
2018-02-07T04:51:25.719Z,-4.14
2018-02-07T04:52:25.742Z,-4.1
2018-02-07T04:53:25.607Z,-4.18
2018-02-07T04:54:25.577Z,-4.21
2018-02-07T04:55:25.764Z,-4.28
2018-02-07T04:56:25.722Z,-4.22
2018-02-07T04:57:25.560Z,-4.25
2018-02-07T04:58:25.650Z,-4.27
2018-02-07T04:59:25.711Z,-4.23
2018-02-07T05:00:25.643Z,-4.23
2018-02-07T05:01:25.665Z,-4.23
2018-02-07T05:02:25.670Z,-4.24
2018-02-07T05:03:26.425Z,-4.26
2018-02-07T05:04:25.671Z,-4.27
2018-02-07T05:05:25.629Z,-4.3
2018-02-07T05:06:25.715Z,-4.3
2018-02-07T05:07:25.599Z,-4.31
2018-02-07T05:08:25.674Z,-4.32
2018-02-07T05:09:25.578Z,-4.31
2018-02-07T05:10:25.690Z,-4.38
2018-02-07T05:11:25.582Z,-4.38
2018-02-07T05:12:25.346Z,-4.4
2018-02-07T05:13:25.372Z,-4.41
2018-02-07T05:14:25.520Z,-4.43
2018-02-07T05:15:25.369Z,-4.48
2018-02-07T05:16:25.495Z,-4.45
2018-02-07T05:17:25.502Z,-4.47
2018-02-07T05:18:25.459Z,-4.45
2018-02-07T05:19:25.494Z,-4.48
2018-02-07T05:20:25.355Z,-4.54
2018-02-07T05:21:25.524Z,-4.52
2018-02-07T05:22:25.491Z,-4.53
2018-02-07T05:23:25.513Z,-4.57
2018-02-07T05:24:25.507Z,-4.53
2018-02-07T05:25:25.473Z,-4.56
2018-02-07T05:26:25.335Z,-4.55
2018-02-07T05:27:25.348Z,-4.48
2018-02-07T05:28:25.410Z,-4.47
2018-02-07T05:29:25.376Z,-4.48
2018-02-07T05:30:25.323Z,-4.52
2018-02-07T05:31:25.399Z,-4.49
2018-02-07T05:32:25.357Z,-4.5
2018-02-07T05:33:25.404Z,-4.54
2018-02-07T05:34:25.443Z,-4.56
2018-02-07T05:35:25.469Z,-4.63
2018-02-07T05:36:25.500Z,-4.56
2018-02-07T05:37:25.430Z,-4.56
2018-02-07T05:38:25.375Z,-4.56
2018-02-07T05:39:25.353Z,-4.63
2018-02-07T05:40:25.371Z,-4.6
2018-02-07T05:41:25.845Z,-4.62
2018-02-07T05:42:25.700Z,-4.6
2018-02-07T05:43:26.368Z,-4.6
2018-02-07T05:44:25.631Z,-4.59
2018-02-07T05:45:25.790Z,-4.61
2018-02-07T05:46:25.636Z,-4.58
2018-02-07T05:47:25.660Z,-4.59
2018-02-07T05:48:25.800Z,-4.56
2018-02-07T05:49:25.729Z,-4.56
2018-02-07T05:50:25.773Z,-4.62
2018-02-07T05:51:25.765Z,-4.67
2018-02-07T05:52:25.782Z,-4.63
2018-02-07T05:53:25.688Z,-4.59
2018-02-07T05:54:25.623Z,-4.61
2018-02-07T05:55:25.812Z,-4.58
2018-02-07T05:56:25.742Z,-4.6
2018-02-07T05:57:25.668Z,-4.63
2018-02-07T05:58:25.858Z,-4.6
2018-02-07T05:59:25.707Z,-4.62
2018-02-07T06:00:25.789Z,-4.61
2018-02-07T06:01:25.692Z,-4.61
2018-02-07T06:02:25.737Z,-4.63
2018-02-07T06:03:25.722Z,-4.64
2018-02-07T06:04:25.838Z,-4.65
2018-02-07T06:05:25.780Z,-4.64
2018-02-07T06:06:25.773Z,-4.63
2018-02-07T06:07:25.879Z,-4.63
2018-02-07T06:08:25.740Z,-4.63
2018-02-07T06:09:25.813Z,-4.64
2018-02-07T06:10:25.723Z,-4.61
2018-02-07T06:11:25.699Z,-4.6
2018-02-07T06:12:25.644Z,-4.65
2018-02-07T06:13:25.742Z,-4.62
2018-02-07T06:14:25.402Z,-4.56
2018-02-07T06:15:25.349Z,-4.59
2018-02-07T06:16:25.462Z,-4.65
2018-02-07T06:17:25.691Z,-4.68
2018-02-07T06:18:25.812Z,-4.66
2018-02-07T06:19:25.394Z,-4.56
2018-02-07T06:20:25.404Z,-4.56
2018-02-07T06:21:25.355Z,-4.62
2018-02-07T06:22:25.363Z,-4.66
2018-02-07T06:23:25.273Z,-4.65
2018-02-07T06:24:25.473Z,-4.65
2018-02-07T06:25:25.437Z,-4.63
2018-02-07T06:26:25.414Z,-4.54
2018-02-07T06:27:25.462Z,-4.65
2018-02-07T06:28:25.496Z,-4.65
2018-02-07T06:29:25.362Z,-4.69
2018-02-07T06:30:25.505Z,-4.66
2018-02-07T06:31:25.353Z,-4.67
2018-02-07T06:32:25.341Z,-4.67
2018-02-07T06:33:25.389Z,-4.65
2018-02-07T06:34:25.492Z,-4.64
2018-02-07T06:35:25.431Z,-4.72
2018-02-07T06:36:25.373Z,-4.72
2018-02-07T06:37:25.534Z,-4.75
2018-02-07T06:38:25.470Z,-4.73
2018-02-07T06:39:25.422Z,-4.73
2018-02-07T06:40:25.427Z,-4.76
2018-02-07T06:41:25.528Z,-4.81
2018-02-07T06:42:25.425Z,-4.74
2018-02-07T06:43:25.344Z,-4.67
2018-02-07T06:44:25.206Z,-4.69
2018-02-07T06:45:25.373Z,-4.73
2018-02-07T06:46:25.175Z,-4.74
2018-02-07T06:47:25.287Z,-4.76
2018-02-07T06:48:25.238Z,-4.8
2018-02-07T06:49:25.311Z,-4.92
2018-02-07T06:50:26.407Z,-4.87
2018-02-07T06:51:26.498Z,-4.94
2018-02-07T06:52:25.387Z,-4.93
2018-02-07T06:53:25.573Z,-4.76
2018-02-07T06:54:25.141Z,-4.75
2018-02-07T06:55:25.241Z,-4.71
2018-02-07T06:56:25.271Z,-4.65
2018-02-07T06:57:25.208Z,-4.21
2018-02-07T06:58:25.158Z,-4.06
2018-02-07T06:59:25.279Z,-4.38
2018-02-07T07:00:25.140Z,-4.52
2018-02-07T07:01:25.206Z,-4.54
2018-02-07T07:02:25.300Z,-4.62
2018-02-07T07:03:25.280Z,-4.66
2018-02-07T07:04:25.120Z,-4.67
2018-02-07T07:05:25.230Z,-4.65
2018-02-07T07:06:25.145Z,-4.68
2018-02-07T07:07:25.188Z,-4.62
2018-02-07T07:08:25.237Z,-4.63
2018-02-07T07:09:25.223Z,-4.66
2018-02-07T07:10:25.116Z,-4.63
2018-02-07T07:11:25.223Z,-4.62
2018-02-07T07:12:25.253Z,-4.64
2018-02-07T07:13:25.168Z,-4.63
2018-02-07T07:14:25.247Z,-4.65
2018-02-07T07:15:25.134Z,-4.67
2018-02-07T07:16:25.223Z,-4.7
2018-02-07T07:17:25.295Z,-4.67
2018-02-07T07:18:25.158Z,-4.65
2018-02-07T07:19:25.155Z,-4.69
2018-02-07T07:20:25.312Z,-4.65
2018-02-07T07:21:25.095Z,-4.63
2018-02-07T07:22:25.127Z,-4.68
2018-02-07T07:23:25.226Z,-4.72
2018-02-07T07:24:25.230Z,-4.68
2018-02-07T07:25:25.167Z,-4.68
2018-02-07T07:26:25.207Z,-4.7
2018-02-07T07:27:25.254Z,-4.7
2018-02-07T07:28:25.273Z,-4.66
2018-02-07T07:29:25.224Z,-4.62
2018-02-07T07:30:25.210Z,-4.65
2018-02-07T07:31:25.228Z,-4.74
2018-02-07T07:32:25.726Z,-4.71
2018-02-07T07:33:25.110Z,-4.63
2018-02-07T07:34:25.183Z,-4.65
2018-02-07T07:35:25.186Z,-4.65
2018-02-07T07:36:25.080Z,-4.63
2018-02-07T07:37:25.228Z,-4.63
2018-02-07T07:38:25.228Z,-4.61
2018-02-07T07:39:25.318Z,-4.61
2018-02-07T07:40:25.224Z,-4.62
2018-02-07T07:41:25.262Z,-4.56
2018-02-07T07:42:25.254Z,-4.58
2018-02-07T07:43:25.274Z,-4.56
2018-02-07T07:44:25.268Z,-4.62
2018-02-07T07:45:25.257Z,-4.64
2018-02-07T07:46:25.263Z,-4.68
2018-02-07T07:47:25.320Z,-4.7
2018-02-07T07:48:25.276Z,-4.53
2018-02-07T07:49:25.280Z,-4.54
2018-02-07T07:50:25.427Z,-4.5
2018-02-07T07:51:25.213Z,-4.54
2018-02-07T07:52:25.200Z,-4.5
2018-02-07T07:53:25.144Z,-4.46
2018-02-07T07:54:25.289Z,-4.5
2018-02-07T07:55:25.151Z,-4.5
2018-02-07T07:56:25.211Z,-4.51
2018-02-07T07:57:25.210Z,-4.44
2018-02-07T07:58:25.191Z,-4.46
2018-02-07T07:59:25.272Z,-4.48
2018-02-07T08:00:25.439Z,-4.48
2018-02-07T08:01:25.283Z,-4.45
2018-02-07T08:02:25.205Z,-4.43
2018-02-07T08:03:25.266Z,-4.45
2018-02-07T08:04:25.166Z,-4.4
2018-02-07T08:05:25.163Z,-4.43
2018-02-07T08:06:25.120Z,-4.34
2018-02-07T08:07:25.403Z,-4.36
2018-02-07T08:08:25.255Z,-4.3
2018-02-07T08:09:25.206Z,-4.33
2018-02-07T08:10:25.312Z,-4.3
2018-02-07T08:11:25.304Z,-4.34
2018-02-07T08:12:25.243Z,-4.31
2018-02-07T08:13:25.134Z,-4.35
2018-02-07T08:14:25.299Z,-4.3
2018-02-07T08:15:25.124Z,-4.34
2018-02-07T08:16:25.254Z,-4.35
2018-02-07T08:17:25.253Z,-4.28
2018-02-07T08:18:25.259Z,-4.23
2018-02-07T08:19:25.422Z,-4.25
2018-02-07T08:20:25.311Z,-4.29
2018-02-07T08:21:25.247Z,-4.22
2018-02-07T08:22:25.264Z,-4.22
2018-02-07T08:23:25.316Z,-4.29
2018-02-07T08:24:25.402Z,-4.23
2018-02-07T08:25:25.357Z,-4.29
2018-02-07T08:26:25.210Z,-4.19
2018-02-07T08:27:25.403Z,-4.21
2018-02-07T08:28:25.327Z,-4.09
2018-02-07T08:29:25.404Z,-4.03
2018-02-07T08:30:25.313Z,-3.97
2018-02-07T08:31:25.306Z,-3.96
2018-02-07T08:32:25.186Z,-3.97
2018-02-07T08:33:25.228Z,-3.92
2018-02-07T08:34:25.316Z,-3.95
2018-02-07T08:35:25.185Z,-3.96
2018-02-07T08:36:25.289Z,-4.02
2018-02-07T08:37:25.192Z,-4
2018-02-07T08:38:25.213Z,-3.87
2018-02-07T08:39:25.301Z,-3.79
2018-02-07T08:40:25.342Z,-3.8
2018-02-07T08:41:25.373Z,-3.78
2018-02-07T08:42:25.329Z,-3.87
2018-02-07T08:43:25.502Z,-3.76
2018-02-07T08:44:25.373Z,-3.66
2018-02-07T08:45:25.377Z,-3.62
2018-02-07T08:46:25.217Z,-3.7
2018-02-07T08:47:25.303Z,-3.53
2018-02-07T08:48:25.248Z,-3.49
2018-02-07T08:49:25.315Z,-3.46
2018-02-07T08:50:25.275Z,-3.45
2018-02-07T08:51:25.271Z,-3.46
2018-02-07T08:52:25.202Z,-3.44
2018-02-07T08:53:25.274Z,-3.5
2018-02-07T08:54:25.338Z,-3.36
2018-02-07T08:55:25.242Z,-3.31
2018-02-07T08:56:25.349Z,-3.23
2018-02-07T08:57:25.273Z,-3.22
2018-02-07T08:58:25.288Z,-3.27
2018-02-07T08:59:25.399Z,-3.09
2018-02-07T09:00:25.606Z,-3.13
2018-02-07T09:01:25.217Z,-3.2
2018-02-07T09:02:25.245Z,-3.12
2018-02-07T09:03:25.274Z,-3.11
2018-02-07T09:04:25.350Z,-3.12
2018-02-07T09:05:25.243Z,-3.14
2018-02-07T09:06:25.195Z,-2.96
2018-02-07T09:07:25.138Z,-2.95
2018-02-07T09:08:25.219Z,-2.9
2018-02-07T09:09:25.267Z,-2.97
2018-02-07T09:10:25.297Z,-2.94
2018-02-07T09:11:25.318Z,-2.94
2018-02-07T09:12:25.228Z,-2.93
2018-02-07T09:13:25.180Z,-2.88
2018-02-07T09:14:25.353Z,-2.96
2018-02-07T09:15:25.250Z,-2.83
2018-02-07T09:16:25.320Z,-2.8
2018-02-07T09:17:25.156Z,-2.81
2018-02-07T09:18:25.327Z,-2.8
2018-02-07T09:19:25.242Z,-2.66
2018-02-07T09:20:25.296Z,-2.62
2018-02-07T09:21:25.341Z,-2.62
2018-02-07T09:22:25.463Z,-2.58
2018-02-07T09:23:25.183Z,-2.59
2018-02-07T09:24:25.171Z,-2.72
2018-02-07T09:25:25.180Z,-2.73
2018-02-07T09:26:25.102Z,-2.76
2018-02-07T09:27:25.138Z,-2.72
2018-02-07T09:28:25.261Z,-2.72
2018-02-07T09:29:25.250Z,-2.74
2018-02-07T09:30:25.301Z,-2.67
2018-02-07T09:31:25.160Z,-2.71
2018-02-07T09:32:25.157Z,-2.67
2018-02-07T09:33:25.133Z,-2.63
2018-02-07T09:34:25.250Z,-2.66
2018-02-07T09:35:25.337Z,-2.63
2018-02-07T09:36:26.166Z,-2.63
2018-02-07T09:37:25.120Z,-2.62
2018-02-07T09:38:25.137Z,-2.53
2018-02-07T09:39:25.274Z,-2.52
2018-02-07T09:40:25.217Z,-2.59
2018-02-07T09:41:25.148Z,-2.61
2018-02-07T09:42:25.243Z,-2.61
2018-02-07T09:43:25.366Z,-2.55
2018-02-07T09:44:25.126Z,-2.6
2018-02-07T09:45:25.180Z,-2.57
2018-02-07T09:46:25.189Z,-2.58
2018-02-07T09:47:25.264Z,-2.48
2018-02-07T09:48:25.246Z,-2.5
2018-02-07T09:49:25.087Z,-2.56
2018-02-07T09:50:25.089Z,-2.47
2018-02-07T09:51:25.181Z,-2.42
2018-02-07T09:52:25.049Z,-2.45
2018-02-07T09:53:25.140Z,-2.4
2018-02-07T09:54:25.170Z,-2.44
2018-02-07T09:55:25.194Z,-2.48
2018-02-07T09:56:25.192Z,-2.47
2018-02-07T09:57:25.166Z,-2.41
2018-02-07T09:58:25.136Z,-2.39
2018-02-07T09:59:25.180Z,-2.35
2018-02-07T10:00:25.150Z,-2.32
2018-02-07T10:01:25.138Z,-2.31
2018-02-07T10:02:25.151Z,-2.34
2018-02-07T10:03:25.095Z,-2.28
2018-02-07T10:04:25.104Z,-2.26
2018-02-07T10:05:25.208Z,-2.22
2018-02-07T10:06:25.182Z,-2.23
2018-02-07T10:07:25.063Z,-2.21
2018-02-07T10:08:25.127Z,-2.16
2018-02-07T10:09:25.178Z,-2.16
2018-02-07T10:10:25.114Z,-2.12
2018-02-07T10:11:25.250Z,-2.18
2018-02-07T10:12:25.154Z,-2.21
2018-02-07T10:13:25.161Z,-2.15
2018-02-07T10:14:25.255Z,-2.28
2018-02-07T10:15:25.227Z,-2.29
2018-02-07T10:16:25.182Z,-2.21
2018-02-07T10:17:25.265Z,-2.23
2018-02-07T10:18:25.228Z,-2.23
2018-02-07T10:19:25.251Z,-2.21
2018-02-07T10:20:25.201Z,-2.22
2018-02-07T10:21:25.143Z,-2.21
2018-02-07T10:22:25.130Z,-2.15
2018-02-07T10:23:25.085Z,-2.13
2018-02-07T10:24:25.281Z,-2.27
2018-02-07T10:25:25.084Z,-2.24
2018-02-07T10:26:25.148Z,-2.37
2018-02-07T10:27:25.200Z,-2.37
2018-02-07T10:28:25.144Z,-2.28
2018-02-07T10:29:25.214Z,-2.3
2018-02-07T10:30:25.199Z,-2.25
2018-02-07T10:31:25.185Z,-2.35
2018-02-07T10:32:25.140Z,-2.39
2018-02-07T10:33:25.158Z,-2.34
2018-02-07T10:34:25.049Z,-2.2
2018-02-07T10:35:25.079Z,-2.1
2018-02-07T10:36:25.216Z,-2.22
2018-02-07T10:37:25.147Z,-2.23
2018-02-07T10:38:25.199Z,-2.3
2018-02-07T10:39:25.168Z,-2.21
2018-02-07T10:40:25.197Z,-2.23
2018-02-07T10:41:25.179Z,-2.33
2018-02-07T10:42:25.255Z,-2.36
2018-02-07T10:43:25.138Z,-2.36
2018-02-07T10:44:25.311Z,-2.26
2018-02-07T10:45:25.186Z,-2.24
2018-02-07T10:46:25.160Z,-2.33
2018-02-07T10:47:25.169Z,-2.24
2018-02-07T10:48:25.275Z,-2.19
2018-02-07T10:49:25.352Z,-2.16
2018-02-07T10:50:25.287Z,-2.23
2018-02-07T10:51:25.350Z,-2.33
2018-02-07T10:52:25.268Z,-2.29
2018-02-07T10:53:25.314Z,-2.24
2018-02-07T10:54:25.331Z,-2.36
2018-02-07T10:55:25.143Z,-2.36
2018-02-07T10:56:25.227Z,-2.24
2018-02-07T10:57:25.225Z,-2.32
2018-02-07T10:58:25.424Z,-2.3
2018-02-07T10:59:25.340Z,-2.24
2018-02-07T11:00:25.311Z,-2.2
2018-02-07T11:01:25.216Z,-2.29
2018-02-07T11:02:25.338Z,-2.24
2018-02-07T11:03:25.550Z,-2.16
2018-02-07T11:04:25.234Z,-2.19
2018-02-07T11:05:25.240Z,-2.05
2018-02-07T11:06:25.342Z,-2.22
2018-02-07T11:07:25.297Z,-2.24
2018-02-07T11:08:25.280Z,-2.12
2018-02-07T11:09:25.364Z,-2.22
2018-02-07T11:10:25.248Z,-2.12
2018-02-07T11:11:25.220Z,-2.16
2018-02-07T11:12:25.310Z,-2.21
2018-02-07T11:13:25.255Z,-2.22
2018-02-07T11:14:25.199Z,-2.2
2018-02-07T11:15:25.208Z,-2.21
2018-02-07T11:16:25.173Z,-2.22
2018-02-07T11:17:25.372Z,-2.1
2018-02-07T11:18:25.289Z,-2.05
2018-02-07T11:19:25.225Z,-2.25
2018-02-07T11:20:25.652Z,-2.19
2018-02-07T11:21:25.084Z,-2.06
2018-02-07T11:22:25.058Z,-2.04
2018-02-07T11:23:25.032Z,-1.95
2018-02-07T11:24:25.023Z,-1.9
2018-02-07T11:25:25.101Z,-2.11
2018-02-07T11:26:25.029Z,-2.17
2018-02-07T11:27:25.055Z,-2.14
2018-02-07T11:28:25.098Z,-2.24
2018-02-07T11:29:25.104Z,-2.07
2018-02-07T11:30:24.984Z,-2.1
2018-02-07T11:31:25.132Z,-2.2
2018-02-07T11:32:25.101Z,-2.12
2018-02-07T11:33:25.026Z,-2.13
2018-02-07T11:34:25.021Z,-2.04
2018-02-07T11:35:24.975Z,-2.01
2018-02-07T11:36:25.150Z,-2.1
2018-02-07T11:37:25.125Z,-2.09
2018-02-07T11:38:25.039Z,-2.1
2018-02-07T11:39:25.158Z,-2.12
2018-02-07T11:40:25.092Z,-2.06
2018-02-07T11:41:25.092Z,-2
2018-02-07T11:42:24.966Z,-2.13
2018-02-07T11:43:25.030Z,-2.31
2018-02-07T11:44:25.094Z,-2.27
2018-02-07T11:45:25.216Z,-2.23
2018-02-07T11:46:25.031Z,-2.18
2018-02-07T11:47:25.098Z,-2.24
2018-02-07T11:48:25.043Z,-2.27
2018-02-07T11:49:25.029Z,-2.16
2018-02-07T11:50:25.159Z,-2.3
2018-02-07T11:51:25.025Z,-2.13
2018-02-07T11:52:25.077Z,-2.19
2018-02-07T11:53:25.060Z,-2.16
2018-02-07T11:54:25.120Z,-2.15
2018-02-07T11:55:25.019Z,-2.2
2018-02-07T11:56:25.008Z,-2.58
2018-02-07T11:57:25.138Z,-2.45
2018-02-07T11:58:25.029Z,-2.56
2018-02-07T11:59:25.131Z,-2.81
2018-02-07T12:00:25.128Z,-2.88
2018-02-07T12:01:25.014Z,-2.56
2018-02-07T12:02:24.999Z,-2.5
2018-02-07T12:03:25.046Z,-2.51
2018-02-07T12:04:25.114Z,-2.39
2018-02-07T12:05:25.074Z,-2.43
2018-02-07T12:06:25.079Z,-2.54
2018-02-07T12:07:25.022Z,-2.49
2018-02-07T12:08:25.120Z,-2.5
2018-02-07T12:09:25.055Z,-2.41
2018-02-07T12:10:25.176Z,-2.59
2018-02-07T12:11:25.037Z,-2.58
2018-02-07T12:12:25.132Z,-2.58
2018-02-07T12:13:25.114Z,-2.57
2018-02-07T12:14:25.105Z,-2.71
2018-02-07T12:15:25.182Z,-2.57
2018-02-07T12:16:25.153Z,-2.69
2018-02-07T12:17:25.117Z,-2.61
2018-02-07T12:18:25.049Z,-2.44
2018-02-07T12:19:25.044Z,-2.41
2018-02-07T12:20:25.021Z,-2.48
2018-02-07T12:21:25.046Z,-2.4
2018-02-07T12:22:25.840Z,-2.53
2018-02-07T12:23:25.857Z,-2.46
2018-02-07T12:24:25.897Z,-2.53
2018-02-07T12:25:25.972Z,-2.41
2018-02-07T12:26:25.983Z,-2.45
2018-02-07T12:27:25.945Z,-2.44
2018-02-07T12:28:25.948Z,-2.46
2018-02-07T12:29:26.420Z,-2.59
2018-02-07T12:30:25.848Z,-2.44
2018-02-07T12:31:26.208Z,-2.48
2018-02-07T12:32:25.815Z,-2.42
2018-02-07T12:33:25.825Z,-2.48
2018-02-07T12:34:25.887Z,-2.49
2018-02-07T12:35:25.928Z,-2.44
2018-02-07T12:36:25.853Z,-2.26
2018-02-07T12:37:25.956Z,-2.29
2018-02-07T12:38:25.928Z,-2.44
2018-02-07T12:39:25.876Z,-2.46
2018-02-07T12:40:25.814Z,-2.36
2018-02-07T12:41:25.912Z,-2.34
2018-02-07T12:42:25.848Z,-2.39
2018-02-07T12:43:25.972Z,-2.32
2018-02-07T12:44:25.841Z,-2.33
2018-02-07T12:45:25.895Z,-2.67
2018-02-07T12:46:26.117Z,-2.68
2018-02-07T12:47:26.009Z,-2.47
2018-02-07T12:48:25.962Z,-2.65
2018-02-07T12:49:26.031Z,-2.53
2018-02-07T12:50:25.949Z,-2.61
2018-02-07T12:51:25.903Z,-2.68
2018-02-07T12:52:26.154Z,-2.64
2018-02-07T12:53:25.789Z,-2.49
2018-02-07T12:54:25.998Z,-2.46
2018-02-07T12:55:25.839Z,-2.41
2018-02-07T12:56:25.799Z,-2.38
2018-02-07T12:57:25.783Z,-2.36